TimeCDT,TemperatureF,Dew PointF,Humidity,Sea Level PressureIn,VisibilityMPH,Wind Direction,Wind SpeedMPH,Gust SpeedMPH,PrecipitationIn,Events,Conditions,WindDirDegrees,DateUTC
12:15 AM,64.0,62.1,93,29.85,2.0,Calm,Calm,-,N/A,,Scattered Clouds,0,2013-06-16 05:15:00
12:35 AM,64.0,62.1,93,29.86,7.0,West,3.5,-,N/A,,Clear,260,2013-06-16 05:35:00
12:55 AM,63.7,61.9,94,29.86,10.0,West,4.6,-,N/A,,Clear,280,2013-06-16 05:55:00
1:15 AM,64.0,62.1,93,29.86,10.0,WNW,4.6,-,N/A,,Clear,290,2013-06-16 06:15:00
1:35 AM,63.1,61.3,94,29.87,10.0,Calm,Calm,-,N/A,,Clear,0,2013-06-16 06:35:00
1:55 AM,63.1,61.2,93,29.86,10.0,West,3.5,-,N/A,,Clear,270,2013-06-16 06:55:00
2:15 AM,63.1,61.2,93,29.85,10.0,WNW,4.6,-,N/A,,Clear,290,2013-06-16 07:15:00
2:35 AM,62.6,60.8,94,29.84,10.0,WNW,3.5,-,N/A,,Clear,290,2013-06-16 07:35:00
2:55 AM,62.6,60.4,93,29.85,10.0,WNW,5.8,-,N/A,,Clear,290,2013-06-16 07:55:00
3:15 AM,62.2,60.3,93,29.85,10.0,West,5.8,-,N/A,,Scattered Clouds,260,2013-06-16 08:15:00
3:35 AM,62.1,60.1,93,29.85,10.0,West,4.6,-,N/A,,Scattered Clouds,270,2013-06-16 08:35:00
3:55 AM,62.1,60.1,93,29.85,10.0,West,3.5,-,N/A,,Clear,270,2013-06-16 08:55:00
4:15 AM,60.8,58.6,93,29.86,7.0,Calm,Calm,-,N/A,,Clear,0,2013-06-16 09:15:00
4:35 AM,60.3,58.3,93,29.86,5.0,Calm,Calm,-,N/A,,Clear,0,2013-06-16 09:35:00
4:55 AM,59.4,57.4,93,29.87,5.0,Calm,Calm,-,N/A,,Clear,0,2013-06-16 09:55:00
5:15 AM,59.0,57.2,94,29.87,4.0,Calm,Calm,-,0.01,,Clear,0,2013-06-16 10:15:00
5:35 AM,58.6,56.8,94,29.87,2.5,Calm,Calm,-,0.01,,Clear,0,2013-06-16 10:35:00
5:55 AM,58.6,56.8,94,29.88,3.0,Calm,Calm,-,0.01,,Clear,0,2013-06-16 10:55:00
6:15 AM,61.0,59.2,94,29.88,10.0,West,4.6,-,N/A,,Clear,260,2013-06-16 11:15:00
6:35 AM,62.6,60.8,94,29.88,10.0,West,5.8,-,N/A,,Clear,260,2013-06-16 11:35:00
6:55 AM,64.0,62.1,93,29.88,10.0,West,6.9,-,N/A,,Clear,280,2013-06-16 11:55:00
7:15 AM,64.6,62.6,93,29.88,10.0,West,6.9,-,N/A,,Clear,280,2013-06-16 12:15:00
7:35 AM,65.8,63.0,90,29.89,10.0,West,5.8,-,N/A,,Clear,280,2013-06-16 12:35:00
7:55 AM,67.5,63.1,86,29.89,10.0,West,4.6,-,N/A,,Clear,280,2013-06-16 12:55:00
8:15 AM,69.3,63.3,81,29.88,10.0,West,5.8,-,N/A,,Clear,280,2013-06-16 13:15:00
8:35 AM,70.9,62.6,75,29.88,10.0,West,3.5,-,N/A,,Clear,270,2013-06-16 13:35:00
8:55 AM,72.1,61.7,70,29.88,10.0,West,4.6,-,N/A,,Clear,270,2013-06-16 13:55:00
9:15 AM,73.2,58.8,61,29.88,10.0,West,8.1,-,N/A,,Clear,280,2013-06-16 14:15:00
9:35 AM,74.5,58.5,57,29.88,10.0,West,8.1,-,N/A,,Clear,280,2013-06-16 14:35:00
9:55 AM,74.5,59.0,58,29.88,10.0,West,8.1,-,N/A,,Clear,260,2013-06-16 14:55:00
10:15 AM,75.4,58.5,56,29.88,10.0,West,6.9,-,N/A,,Clear,280,2013-06-16 15:15:00
10:35 AM,76.8,58.6,53,29.88,10.0,West,6.9,-,N/A,,Clear,280,2013-06-16 15:35:00
10:55 AM,78.1,58.8,51,29.88,10.0,WNW,5.8,-,N/A,,Clear,300,2013-06-16 15:55:00
11:15 AM,79.0,56.8,46,29.88,10.0,WNW,6.9,-,N/A,,Clear,290,2013-06-16 16:15:00
11:35 AM,79.9,54.7,42,29.88,10.0,NW,10.4,-,N/A,,Clear,310,2013-06-16 16:35:00
11:55 AM,80.6,53.4,39,29.88,10.0,NW,10.4,16.1,N/A,,Clear,310,2013-06-16 16:55:00
12:15 PM,81.5,50.7,34,29.88,10.0,West,13.8,17.3,N/A,,Scattered Clouds,270,2013-06-16 17:15:00
12:35 PM,81.5,50.7,34,29.88,10.0,West,6.9,21.9,N/A,,Clear,270,2013-06-16 17:35:00
12:55 PM,82.2,47.3,29,29.88,10.0,West,12.7,21.9,N/A,,Clear,280,2013-06-16 17:55:00
1:15 PM,81.7,48.4,31,29.88,10.0,West,10.4,17.3,N/A,,Scattered Clouds,280,2013-06-16 18:15:00
1:35 PM,82.9,47.1,29,29.88,10.0,WNW,13.8,20.7,N/A,,Scattered Clouds,290,2013-06-16 18:35:00
1:55 PM,82.8,46.8,28,29.88,10.0,West,17.3,-,N/A,,Scattered Clouds,270,2013-06-16 18:55:00
2:15 PM,83.8,47.3,28,29.88,10.0,West,12.7,19.6,N/A,,Scattered Clouds,270,2013-06-16 19:15:00
2:35 PM,83.5,46.8,28,29.88,10.0,WNW,12.7,18.4,N/A,,Scattered Clouds,300,2013-06-16 19:35:00
2:55 PM,82.6,47.3,29,29.88,10.0,NW,9.2,18.4,N/A,,Scattered Clouds,310,2013-06-16 19:55:00
3:15 PM,80.8,46.4,30,29.88,10.0,West,11.5,19.6,N/A,,Mostly Cloudy,280,2013-06-16 20:15:00
3:35 PM,83.3,47.3,28,29.88,10.0,WNW,16.1,-,N/A,,Scattered Clouds,290,2013-06-16 20:35:00
3:55 PM,82.9,46.2,28,29.88,10.0,West,11.5,18.4,N/A,,Scattered Clouds,280,2013-06-16 20:55:00
4:15 PM,83.3,45.3,26,29.88,10.0,West,15.0,21.9,N/A,,Scattered Clouds,270,2013-06-16 21:15:00
4:35 PM,83.3,45.1,26,29.87,10.0,West,8.1,-,N/A,,Scattered Clouds,260,2013-06-16 21:35:00
4:55 PM,83.3,45.7,27,29.87,10.0,West,12.7,18.4,N/A,,Clear,280,2013-06-16 21:55:00
5:15 PM,83.3,43.2,24,29.86,10.0,West,11.5,21.9,N/A,,Clear,260,2013-06-16 22:15:00
5:35 PM,82.4,45.0,27,29.86,10.0,West,15.0,19.6,N/A,,Clear,260,2013-06-16 22:35:00
5:55 PM,82.4,45.9,28,29.86,10.0,West,9.2,16.1,N/A,,Clear,270,2013-06-16 22:55:00
6:15 PM,81.9,47.1,30,29.86,10.0,West,9.2,-,N/A,,Clear,260,2013-06-16 23:15:00
6:35 PM,81.5,48.4,31,29.86,10.0,West,6.9,-,N/A,,Clear,260,2013-06-16 23:35:00
6:55 PM,79.7,48.6,33,29.87,10.0,West,6.9,-,N/A,,Clear,260,2013-06-16 23:55:00
7:15 PM,79.0,49.3,35,29.87,10.0,West,5.8,-,N/A,,Clear,270,2013-06-17 00:15:00
7:35 PM,78.1,51.8,40,29.87,10.0,West,3.5,-,N/A,,Clear,270,2013-06-17 00:35:00
7:55 PM,77.7,52.9,42,29.87,10.0,West,3.5,-,N/A,,Clear,270,2013-06-17 00:55:00
8:15 PM,76.1,53.6,45,29.87,10.0,WSW,3.5,-,N/A,,Clear,250,2013-06-17 01:15:00
8:35 PM,74.5,52.7,46,29.87,10.0,Calm,Calm,-,N/A,,Clear,0,2013-06-17 01:35:00
8:55 PM,71.4,55.4,57,29.87,10.0,Calm,Calm,-,N/A,,Clear,0,2013-06-17 01:55:00
9:15 PM,69.3,55.8,62,29.87,10.0,Calm,Calm,-,N/A,,Clear,0,2013-06-17 02:15:00
9:35 PM,66.2,55.8,69,29.87,10.0,Calm,Calm,-,N/A,,Clear,0,2013-06-17 02:35:00
9:55 PM,66.4,55.8,69,29.87,10.0,Calm,Calm,-,N/A,,Clear,0,2013-06-17 02:55:00
10:15 PM,64.0,56.8,77,29.88,10.0,Calm,Calm,-,N/A,,Clear,0,2013-06-17 03:15:00
10:35 PM,67.5,53.4,61,29.90,10.0,NNE,9.2,16.1,N/A,,Scattered Clouds,30,2013-06-17 03:35:00
10:55 PM,67.8,52.2,57,29.91,10.0,NE,8.1,-,N/A,,Scattered Clouds,40,2013-06-17 03:55:00
11:15 PM,67.1,51.8,58,29.91,10.0,ENE,4.6,-,N/A,,Clear,70,2013-06-17 04:15:00
11:35 PM,64.6,52.5,65,29.91,10.0,Calm,Calm,-,N/A,,Clear,0,2013-06-17 04:35:00
11:55 PM,64.0,52.7,67,29.90,10.0,Calm,Calm,-,N/A,,Clear,0,2013-06-17 04:55:00